createdAt,value
2023-05-06T00:00:03.853Z,24.36
2023-05-06T00:02:40.135Z,24.34
2023-05-06T00:05:07.952Z,24.35
2023-05-06T00:07:35.229Z,24.34
2023-05-06T00:10:02.303Z,24.23
2023-05-06T00:12:29.421Z,23.75
2023-05-06T00:14:56.467Z,24.10
2023-05-06T00:17:23.628Z,24.16
2023-05-06T00:19:52.158Z,24.22
2023-05-06T00:22:19.275Z,24.19
2023-05-06T00:24:46.456Z,24.20
2023-05-06T00:27:13.639Z,24.19
2023-05-06T00:29:40.699Z,24.31
2023-05-06T00:32:07.880Z,24.28
2023-05-06T00:34:34.990Z,24.25
2023-05-06T00:37:03.651Z,24.27
2023-05-06T00:39:30.806Z,24.25
2023-05-06T00:41:59.736Z,24.20
2023-05-06T00:44:26.789Z,24.26
2023-05-06T00:46:53.989Z,24.23
2023-05-06T00:49:21.947Z,24.30
2023-05-06T00:51:49.583Z,24.34
2023-05-06T00:54:18.450Z,24.40
2023-05-06T00:56:45.536Z,24.40
2023-05-06T00:59:12.826Z,24.40
2023-05-06T01:01:40.838Z,24.48
2023-05-06T01:04:08.097Z,24.50
2023-05-06T01:06:37.893Z,24.57
2023-05-06T01:09:07.945Z,24.62
2023-05-06T01:11:39.027Z,24.73
2023-05-06T01:14:08.570Z,24.84
2023-05-06T01:16:38.436Z,24.79
2023-05-06T01:19:06.053Z,24.78
2023-05-06T01:21:33.246Z,24.75
2023-05-06T01:24:01.935Z,24.66
2023-05-06T01:26:29.212Z,24.63
2023-05-06T01:28:57.296Z,24.56
2023-05-06T01:31:25.940Z,24.22
2023-05-06T01:34:02.640Z,24.35
2023-05-06T01:36:33.233Z,24.36
2023-05-06T01:39:08.961Z,24.23
2023-05-06T01:41:39.403Z,24.14
2023-05-06T01:44:07.657Z,24.13
2023-05-06T01:46:35.850Z,24.11
2023-05-06T01:49:04.813Z,24.05
2023-05-06T01:51:32.918Z,24.05
2023-05-06T01:54:01.473Z,24.08
2023-05-06T01:56:28.617Z,24.15
2023-05-06T01:58:55.686Z,24.01
2023-05-06T02:01:22.884Z,24.11
2023-05-06T02:03:50.099Z,24.08
2023-05-06T02:06:17.405Z,24.01
2023-05-06T02:08:44.827Z,24.08
2023-05-06T02:11:18.121Z,24.05
2023-05-06T02:13:46.350Z,24.11
2023-05-06T02:16:13.622Z,24.10
2023-05-06T02:18:41.012Z,24.16
2023-05-06T02:21:08.397Z,24.15
2023-05-06T02:23:36.752Z,24.10
2023-05-06T02:26:03.839Z,24.08
2023-05-06T02:28:32.355Z,24.04
2023-05-06T02:30:59.752Z,24.10
2023-05-06T02:33:26.807Z,24.11
2023-05-06T02:35:54.060Z,24.00
2023-05-06T02:38:21.577Z,24.11
2023-05-06T02:40:48.672Z,24.04
2023-05-06T02:43:15.787Z,24.03
2023-05-06T02:45:44.442Z,24.09
2023-05-06T02:48:11.541Z,24.02
2023-05-06T02:50:38.651Z,24.11
2023-05-06T02:53:05.789Z,23.92
2023-05-06T02:55:32.918Z,23.49
2023-05-06T02:57:59.998Z,23.48
2023-05-06T03:00:27.370Z,23.47
2023-05-06T03:02:55.973Z,23.35
2023-05-06T03:05:23.082Z,23.38
2023-05-06T03:07:50.179Z,23.44
2023-05-06T03:10:17.581Z,23.36
2023-05-06T03:12:44.716Z,23.31
2023-05-06T03:15:12.201Z,23.43
2023-05-06T03:17:39.632Z,23.26
2023-05-06T03:20:10.018Z,23.49
2023-05-06T03:22:41.228Z,23.32
2023-05-06T03:25:09.146Z,23.52
2023-05-06T03:27:39.297Z,23.23
2023-05-06T03:30:13.621Z,23.38
2023-05-06T03:32:41.035Z,23.60
2023-05-06T03:35:12.529Z,23.74
2023-05-06T03:37:42.694Z,23.46
2023-05-06T03:40:10.707Z,23.49
2023-05-06T03:42:38.740Z,23.55
2023-05-06T03:45:06.774Z,23.39
2023-05-06T03:47:34.581Z,23.78
2023-05-06T03:50:03.548Z,23.84
2023-05-06T03:52:34.511Z,23.76
2023-05-06T03:55:01.790Z,23.82
2023-05-06T03:57:31.011Z,23.89
2023-05-06T03:59:58.729Z,23.88
2023-05-06T04:02:27.669Z,23.86
2023-05-06T04:04:55.300Z,23.88
2023-05-06T04:07:22.422Z,23.73
2023-05-06T04:09:52.463Z,23.78
2023-05-06T04:12:20.112Z,23.83
2023-05-06T04:14:48.305Z,23.80
2023-05-06T04:17:15.718Z,23.96
2023-05-06T04:19:44.253Z,23.66
2023-05-06T04:22:11.372Z,23.73
2023-05-06T04:24:38.740Z,23.81
2023-05-06T04:27:07.698Z,23.89
2023-05-06T04:29:34.892Z,23.89
2023-05-06T04:32:04.700Z,23.95
2023-05-06T04:34:35.067Z,24.06
2023-05-06T04:37:02.412Z,24.03
2023-05-06T04:39:55.847Z,24.14
2023-05-06T04:42:25.035Z,24.02
2023-05-06T04:45:02.727Z,24.03
2023-05-06T04:47:32.801Z,24.15
2023-05-06T04:50:00.893Z,24.20
2023-05-06T04:52:28.878Z,24.04
2023-05-06T04:54:56.185Z,24.06
2023-05-06T04:57:25.853Z,24.15
2023-05-06T04:59:54.917Z,24.03
2023-05-06T05:02:22.393Z,24.03
2023-05-06T05:04:50.282Z,24.08
2023-05-06T05:07:17.645Z,24.17
2023-05-06T05:09:44.827Z,23.94
2023-05-06T05:12:12.057Z,24.20
2023-05-06T05:14:44.755Z,24.08
2023-05-06T05:17:14.044Z,24.15
2023-05-06T05:19:41.868Z,24.24
2023-05-06T05:22:09.370Z,24.14
2023-05-06T05:24:36.497Z,24.01
2023-05-06T05:27:03.599Z,24.11
2023-05-06T05:29:30.928Z,24.18
2023-05-06T05:32:01.645Z,24.07
2023-05-06T05:34:28.856Z,24.31
2023-05-06T05:36:56.798Z,24.19
2023-05-06T05:39:24.598Z,23.79
2023-05-06T05:41:51.847Z,24.01
2023-05-06T05:44:19.205Z,24.19
2023-05-06T05:46:47.006Z,24.25
2023-05-06T05:49:19.270Z,24.46
2023-05-06T05:51:48.951Z,24.37
2023-05-06T05:54:18.238Z,24.49
2023-05-06T05:56:46.395Z,24.33
2023-05-06T05:59:14.523Z,24.53
2023-05-06T06:01:43.101Z,24.27
2023-05-06T06:04:10.756Z,24.46
2023-05-06T06:06:40.048Z,24.51
2023-05-06T06:09:07.135Z,24.21
2023-05-06T06:11:34.356Z,24.20
2023-05-06T06:14:02.193Z,24.48
2023-05-06T06:16:29.539Z,24.50
2023-05-06T06:18:57.010Z,24.79
2023-05-06T06:21:24.900Z,24.64
2023-05-06T06:23:54.493Z,24.52
2023-05-06T06:26:21.599Z,24.52
2023-05-06T06:28:48.690Z,24.64
2023-05-06T06:31:15.951Z,24.70
2023-05-06T06:33:43.120Z,24.77
2023-05-06T06:36:11.248Z,24.64
2023-05-06T06:38:38.808Z,24.72
2023-05-06T06:41:07.375Z,24.68
2023-05-06T06:43:34.461Z,24.48
2023-05-06T06:46:07.285Z,24.63
2023-05-06T06:48:34.722Z,24.51
2023-05-06T06:51:01.952Z,24.58
2023-05-06T06:53:28.999Z,24.52
2023-05-06T06:55:56.082Z,24.52
2023-05-06T06:58:24.643Z,24.59
2023-05-06T07:00:51.743Z,24.74
2023-05-06T07:03:18.904Z,24.49
2023-05-06T07:05:46.082Z,24.67
2023-05-06T07:08:13.267Z,24.68
2023-05-06T07:10:40.430Z,24.58
2023-05-06T07:13:07.654Z,24.57
2023-05-06T07:15:36.202Z,24.50
2023-05-06T07:18:03.474Z,24.51
2023-05-06T07:20:30.742Z,24.67
2023-05-06T07:22:58.003Z,24.80
2023-05-06T07:25:25.090Z,25.10
2023-05-06T07:27:52.330Z,25.17
2023-05-06T07:30:21.065Z,25.24
2023-05-06T07:32:51.549Z,25.42
2023-05-06T07:35:18.715Z,25.37
2023-05-06T07:37:46.148Z,25.49
2023-05-06T07:40:13.457Z,25.49
2023-05-06T07:42:42.813Z,25.43
2023-05-06T07:45:11.154Z,25.70
2023-05-06T07:47:38.743Z,25.86
2023-05-06T07:50:08.096Z,25.67
2023-05-06T07:52:35.232Z,25.76
2023-05-06T07:55:02.319Z,25.57
2023-05-06T07:57:29.410Z,25.79
2023-05-06T07:59:56.742Z,25.73
2023-05-06T08:02:23.828Z,25.84
2023-05-06T08:04:51.935Z,25.79
2023-05-06T08:07:20.652Z,25.93
2023-05-06T08:09:47.804Z,25.86
2023-05-06T08:12:14.897Z,25.86
2023-05-06T08:14:42.176Z,26.09
2023-05-06T08:17:09.324Z,26.10
2023-05-06T08:19:36.406Z,26.08
2023-05-06T08:22:03.498Z,26.12
2023-05-06T08:24:32.042Z,26.18
2023-05-06T08:26:59.168Z,26.07
2023-05-06T08:29:26.324Z,26.04
2023-05-06T08:31:53.522Z,25.87
2023-05-06T08:34:20.969Z,26.04
2023-05-06T08:36:48.371Z,26.11
2023-05-06T08:39:15.669Z,26.01
2023-05-06T08:41:47.351Z,26.33
2023-05-06T08:44:15.451Z,26.02
2023-05-06T08:46:42.736Z,26.15
2023-05-06T08:49:09.939Z,26.20
2023-05-06T08:51:38.208Z,26.14
2023-05-06T08:54:06.005Z,25.99
2023-05-06T08:56:34.125Z,25.92
2023-05-06T08:59:02.782Z,26.21
2023-05-06T09:01:29.954Z,26.23
2023-05-06T09:03:58.285Z,26.12
2023-05-06T09:06:25.927Z,26.02
2023-05-06T09:08:53.230Z,26.40
2023-05-06T09:11:22.058Z,26.31
2023-05-06T09:13:49.642Z,26.32
2023-05-06T09:16:30.921Z,26.26
2023-05-06T09:18:58.989Z,26.14
2023-05-06T09:21:36.268Z,26.21
2023-05-06T09:24:03.808Z,26.26
2023-05-06T09:26:31.132Z,26.26
2023-05-06T09:28:58.267Z,26.36
2023-05-06T09:31:25.866Z,26.37
2023-05-06T09:33:54.915Z,26.39
2023-05-06T09:36:22.438Z,26.47
2023-05-06T09:38:49.706Z,26.42
2023-05-06T09:41:20.353Z,26.41
2023-05-06T09:43:48.177Z,26.28
2023-05-06T09:46:16.236Z,26.38
2023-05-06T09:48:43.503Z,26.29
2023-05-06T09:51:12.214Z,26.54
2023-05-06T09:53:39.524Z,26.69
2023-05-06T09:56:07.804Z,26.53
2023-05-06T09:58:35.470Z,26.48
2023-05-06T10:01:02.834Z,26.51
2023-05-06T10:03:31.086Z,26.35
2023-05-06T10:05:58.623Z,26.47
2023-05-06T10:08:27.806Z,26.68
2023-05-06T10:10:55.504Z,26.58
2023-05-06T10:13:23.556Z,26.90
2023-05-06T10:15:50.873Z,26.68
2023-05-06T10:18:19.254Z,26.72
2023-05-06T10:20:47.735Z,26.98
2023-05-06T10:23:21.324Z,26.77
2023-05-06T10:25:51.242Z,26.58
2023-05-06T10:28:26.260Z,26.59
2023-05-06T10:30:58.539Z,26.99
2023-05-06T10:33:26.529Z,26.84
2023-05-06T10:35:55.686Z,26.84
2023-05-06T10:38:24.840Z,26.76
2023-05-06T10:40:53.882Z,26.94
2023-05-06T10:43:24.880Z,27.11
2023-05-06T10:46:02.600Z,27.01
2023-05-06T10:48:30.159Z,26.86
2023-05-06T10:51:18.067Z,26.83
2023-05-06T10:53:58.071Z,27.25
2023-05-06T10:56:27.013Z,27.07
2023-05-06T10:58:54.244Z,27.05
2023-05-06T11:01:21.876Z,27.24
2023-05-06T11:03:50.709Z,27.05
2023-05-06T11:06:32.031Z,26.91
2023-05-06T11:08:59.457Z,26.87
2023-05-06T11:11:44.915Z,26.76
2023-05-06T11:14:14.283Z,27.18
2023-05-06T11:16:47.213Z,26.96
2023-05-06T11:19:18.656Z,27.17
2023-05-06T11:21:45.738Z,27.19
2023-05-06T11:24:13.711Z,27.03
2023-05-06T11:26:41.565Z,27.05
2023-05-06T11:29:09.107Z,27.29
2023-05-06T11:31:41.803Z,27.34
2023-05-06T11:34:09.983Z,27.13
2023-05-06T11:36:37.805Z,27.33
2023-05-06T11:39:08.339Z,27.14
2023-05-06T11:41:38.751Z,26.84
2023-05-06T11:44:05.842Z,27.09
2023-05-06T11:46:33.339Z,27.40
2023-05-06T11:49:01.968Z,27.05
2023-05-06T11:51:29.634Z,27.28
2023-05-06T11:54:04.420Z,27.52
2023-05-06T11:56:31.510Z,27.13
2023-05-06T11:58:58.556Z,27.09
2023-05-06T12:01:25.630Z,27.25
2023-05-06T12:03:55.440Z,26.88
2023-05-06T12:06:34.235Z,27.21
2023-05-06T12:09:01.534Z,26.89
2023-05-06T12:11:28.860Z,26.68
2023-05-06T12:13:56.153Z,27.06
2023-05-06T12:16:23.478Z,26.66
2023-05-06T12:18:50.658Z,26.78
2023-05-06T12:21:22.138Z,26.76
2023-05-06T12:23:54.463Z,26.70
2023-05-06T12:26:21.579Z,26.07
2023-05-06T12:29:04.313Z,26.71
2023-05-06T12:31:31.473Z,26.73
2023-05-06T12:34:00.547Z,26.46
2023-05-06T12:36:28.606Z,26.56
2023-05-06T12:38:57.874Z,26.82
2023-05-06T12:41:25.552Z,26.87
2023-05-06T12:43:52.707Z,26.70
2023-05-06T12:46:19.878Z,26.51
2023-05-06T12:48:57.021Z,26.65
2023-05-06T12:51:24.344Z,26.85
2023-05-06T12:53:51.420Z,26.94
2023-05-06T12:56:20.020Z,27.15
2023-05-06T12:58:55.961Z,26.68
2023-05-06T13:01:23.433Z,27.04
2023-05-06T13:03:51.308Z,26.78
2023-05-06T13:06:18.419Z,26.73
2023-05-06T13:08:45.522Z,27.09
2023-05-06T13:11:12.612Z,26.92
2023-05-06T13:13:41.110Z,26.74
2023-05-06T13:16:08.840Z,27.00
2023-05-06T13:18:36.155Z,26.81
2023-05-06T13:21:03.274Z,27.16
2023-05-06T13:23:30.453Z,26.56
2023-05-06T13:26:04.862Z,26.30
2023-05-06T13:28:33.281Z,26.15
2023-05-06T13:31:01.936Z,25.83
2023-05-06T13:33:29.056Z,25.83
2023-05-06T13:35:56.188Z,25.86
2023-05-06T13:38:23.448Z,26.31
2023-05-06T13:40:51.622Z,26.18
2023-05-06T13:43:18.962Z,26.01
2023-05-06T13:45:46.198Z,26.17
2023-05-06T13:48:15.983Z,26.20
2023-05-06T13:50:43.299Z,25.83
2023-05-06T13:53:10.680Z,25.60
2023-05-06T13:55:38.150Z,25.54
2023-05-06T13:58:05.870Z,25.48
2023-05-06T14:00:33.201Z,25.40
2023-05-06T14:03:00.569Z,25.53
2023-05-06T14:05:29.211Z,25.33
2023-05-06T14:07:56.399Z,25.51
2023-05-06T14:10:23.545Z,25.43
2023-05-06T14:12:50.806Z,25.43
2023-05-06T14:15:17.996Z,25.59
2023-05-06T14:17:45.617Z,25.55
2023-05-06T14:20:12.819Z,25.67
2023-05-06T14:22:41.657Z,25.42
2023-05-06T14:25:09.999Z,25.33
2023-05-06T14:27:37.446Z,25.42
2023-05-06T14:30:06.676Z,25.34
2023-05-06T14:32:35.981Z,25.38
2023-05-06T14:35:03.149Z,25.22
2023-05-06T14:37:30.861Z,25.28
2023-05-06T14:39:59.456Z,25.31
2023-05-06T14:42:26.626Z,25.21
2023-05-06T14:44:53.821Z,25.13
2023-05-06T14:47:20.911Z,25.11
2023-05-06T14:49:48.144Z,25.07
2023-05-06T14:52:15.205Z,25.08
2023-05-06T14:54:42.781Z,25.04
2023-05-06T14:57:11.872Z,25.07
2023-05-06T14:59:38.981Z,25.01
2023-05-06T15:02:07.296Z,25.02
2023-05-06T15:04:34.434Z,24.93
2023-05-06T15:07:01.980Z,24.97
2023-05-06T15:09:29.169Z,24.91
2023-05-06T15:11:56.292Z,25.01
2023-05-06T15:14:24.832Z,24.96
2023-05-06T15:16:53.083Z,24.99
2023-05-06T15:19:20.464Z,25.06
2023-05-06T15:21:47.562Z,24.96
2023-05-06T15:24:14.649Z,25.01
2023-05-06T15:26:41.788Z,25.03
2023-05-06T15:29:08.887Z,25.00
2023-05-06T15:31:37.470Z,25.14
2023-05-06T15:34:05.217Z,24.97
2023-05-06T15:36:32.460Z,24.94
2023-05-06T15:39:00.645Z,24.96
2023-05-06T15:41:28.650Z,24.92
2023-05-06T15:43:56.575Z,24.92
2023-05-06T15:46:23.784Z,24.88
2023-05-06T15:49:09.067Z,24.96
2023-05-06T15:51:39.401Z,24.95
2023-05-06T15:54:06.959Z,25.07
2023-05-06T15:56:39.363Z,25.10
2023-05-06T15:59:09.044Z,25.12
2023-05-06T16:02:16.567Z,25.16
2023-05-06T16:04:25.527Z,25.22
2023-05-06T16:06:52.748Z,25.27
2023-05-06T16:09:20.221Z,25.38
2023-05-06T16:11:47.299Z,25.21
2023-05-06T16:14:14.343Z,25.35
2023-05-06T16:16:42.131Z,25.36
2023-05-06T16:19:09.560Z,25.38
2023-05-06T16:21:38.124Z,25.28
2023-05-06T16:24:05.384Z,25.35
2023-05-06T16:26:32.430Z,25.41
2023-05-06T16:28:59.610Z,25.20
2023-05-06T16:31:26.896Z,25.24
2023-05-06T16:33:53.998Z,25.15
2023-05-06T16:36:21.093Z,25.02
2023-05-06T16:38:50.238Z,25.14
2023-05-06T16:41:17.386Z,25.06
2023-05-06T16:43:44.603Z,25.04
2023-05-06T16:46:11.749Z,24.88
2023-05-06T16:48:39.354Z,24.90
2023-05-06T16:51:06.732Z,24.66
2023-05-06T16:53:33.841Z,24.72
2023-05-06T16:56:03.180Z,24.82
2023-05-06T16:58:30.201Z,24.77
2023-05-06T17:00:57.439Z,24.82
2023-05-06T17:03:24.816Z,24.74
2023-05-06T17:05:52.040Z,24.74
2023-05-06T17:08:19.327Z,24.85
2023-05-06T17:10:46.576Z,24.91
2023-05-06T17:13:15.172Z,24.60
2023-05-06T17:15:42.250Z,24.76
2023-05-06T17:18:09.411Z,24.94
2023-05-06T17:20:51.524Z,24.67
2023-05-06T17:23:22.861Z,24.82
2023-05-06T17:25:50.070Z,24.91
2023-05-06T17:31:05.730Z,24.86
2023-05-06T17:33:32.919Z,25.03
2023-05-06T17:36:00.114Z,25.08
2023-05-06T17:38:27.272Z,25.07
2023-05-06T17:40:54.334Z,25.20
2023-05-06T17:43:22.925Z,25.05
2023-05-06T17:45:50.098Z,24.92
2023-05-06T17:48:17.177Z,24.87
2023-05-06T17:50:44.257Z,24.83
2023-05-06T17:53:11.715Z,24.90
2023-05-06T17:55:38.786Z,24.85
2023-05-06T17:58:06.076Z,24.75
2023-05-06T18:00:34.792Z,24.80
2023-05-06T18:03:01.974Z,24.84
2023-05-06T18:05:29.263Z,24.80
2023-05-06T18:07:56.837Z,24.76
2023-05-06T18:10:23.905Z,24.74
2023-05-06T18:12:51.055Z,24.71
2023-05-06T18:15:18.278Z,24.71
2023-05-06T18:17:47.012Z,24.66
2023-05-06T18:20:14.105Z,24.66
2023-05-06T18:22:41.189Z,24.58
2023-05-06T18:25:09.326Z,24.61
2023-05-06T18:27:36.569Z,24.60
2023-05-06T18:30:03.772Z,24.63
2023-05-06T18:32:31.438Z,24.50
2023-05-06T18:35:00.062Z,24.55
2023-05-06T18:37:27.940Z,24.40
2023-05-06T18:39:55.417Z,24.52
2023-05-06T18:42:22.577Z,24.46
2023-05-06T18:44:49.697Z,24.48
2023-05-06T18:47:17.336Z,24.51
2023-05-06T18:49:44.769Z,24.47
2023-05-06T18:52:13.426Z,24.31
2023-05-06T18:54:40.587Z,24.32
2023-05-06T18:57:07.873Z,24.48
2023-05-06T18:59:35.062Z,24.47
2023-05-06T19:02:03.771Z,24.12
2023-05-06T19:04:31.802Z,24.20
2023-05-06T19:06:58.962Z,24.12
2023-05-06T19:09:27.516Z,24.21
2023-05-06T19:11:54.601Z,24.14
2023-05-06T19:14:22.901Z,24.28
2023-05-06T19:16:50.609Z,24.10
2023-05-06T19:19:17.760Z,24.07
2023-05-06T19:21:44.825Z,24.01
2023-05-06T19:24:12.413Z,24.11
2023-05-06T19:26:41.023Z,24.10
2023-05-06T19:29:08.402Z,24.17
2023-05-06T19:31:35.709Z,24.14
2023-05-06T19:34:03.450Z,24.06
2023-05-06T19:36:30.498Z,24.07
2023-05-06T19:38:57.557Z,24.10
2023-05-06T19:41:25.270Z,23.98
2023-05-06T19:43:53.785Z,24.41
2023-05-06T19:46:20.951Z,24.70
2023-05-06T19:48:48.195Z,24.78
2023-05-06T19:51:15.264Z,24.86
2023-05-06T19:53:42.364Z,24.92
2023-05-06T19:56:10.126Z,25.12
2023-05-06T19:58:37.278Z,25.11
2023-05-06T20:01:06.468Z,25.08
2023-05-06T20:03:34.180Z,25.09
2023-05-06T20:06:01.356Z,25.07
2023-05-06T20:08:28.961Z,25.07
2023-05-06T20:10:56.067Z,25.06
2023-05-06T20:13:23.400Z,25.07
2023-05-06T20:15:50.607Z,25.07
2023-05-06T20:18:19.193Z,25.15
2023-05-06T20:20:46.229Z,25.12
2023-05-06T20:23:13.306Z,25.10
2023-05-06T20:25:40.415Z,25.13
2023-05-06T20:28:07.642Z,25.08
2023-05-06T20:30:34.752Z,25.08
2023-05-06T20:33:02.531Z,25.05
2023-05-06T20:35:31.150Z,25.07
2023-05-06T20:37:58.267Z,25.11
2023-05-06T20:40:25.392Z,25.13
2023-05-06T20:42:52.531Z,25.14
2023-05-06T20:45:19.857Z,25.12
2023-05-06T20:47:47.094Z,25.12
2023-05-06T20:50:14.231Z,25.12
2023-05-06T20:52:43.086Z,25.13
2023-05-06T20:55:10.615Z,25.13
2023-05-06T20:57:41.939Z,25.14
2023-05-06T21:00:09.518Z,25.28
2023-05-06T21:02:41.318Z,25.23
2023-05-06T21:05:09.773Z,25.21
2023-05-06T21:07:37.112Z,25.18
2023-05-06T21:10:06.115Z,25.17
2023-05-06T21:12:33.582Z,25.18
2023-05-06T21:15:00.717Z,25.13
2023-05-06T21:17:29.299Z,25.13
2023-05-06T21:19:56.489Z,25.13
2023-05-06T21:22:24.122Z,25.12
2023-05-06T21:24:51.431Z,25.14
2023-05-06T21:27:20.136Z,25.12
2023-05-06T21:29:47.213Z,25.14
2023-05-06T21:32:14.447Z,25.10
2023-05-06T21:34:41.495Z,25.13
2023-05-06T21:37:08.713Z,25.12
2023-05-06T21:39:35.764Z,25.08
2023-05-06T21:42:02.855Z,25.09
2023-05-06T21:44:32.996Z,25.08
2023-05-06T21:47:00.188Z,25.08
2023-05-06T21:49:27.352Z,25.17
2023-05-06T21:51:54.482Z,25.19
2023-05-06T21:54:21.535Z,25.18
2023-05-06T21:56:48.607Z,25.13
2023-05-06T21:59:15.689Z,25.10
2023-05-06T22:01:44.888Z,25.11
2023-05-06T22:04:12.068Z,25.14
2023-05-06T22:06:39.326Z,25.16
2023-05-06T22:09:06.452Z,25.16
2023-05-06T22:11:33.648Z,25.12
2023-05-06T22:14:00.863Z,25.16
2023-05-06T22:16:28.103Z,25.14
2023-05-06T22:18:56.830Z,25.14
2023-05-06T22:21:23.985Z,25.12
2023-05-06T22:23:51.057Z,25.10
2023-05-06T22:26:18.182Z,25.05
2023-05-06T22:28:45.268Z,25.07
2023-05-06T22:31:12.401Z,25.08
2023-05-06T22:33:39.983Z,25.00
2023-05-06T22:36:08.702Z,24.96
2023-05-06T22:38:35.786Z,24.98
2023-05-06T22:41:02.915Z,24.84
2023-05-06T22:43:29.945Z,24.83
2023-05-06T22:45:57.159Z,24.84
2023-05-06T22:48:24.281Z,24.85
2023-05-06T22:50:51.346Z,24.83
2023-05-06T22:53:19.897Z,24.78
2023-05-06T22:55:46.973Z,24.78
2023-05-06T22:58:14.073Z,24.74
2023-05-06T23:00:41.376Z,24.70
2023-05-06T23:03:08.553Z,24.74
2023-05-06T23:05:35.733Z,24.67
2023-05-06T23:08:02.941Z,24.67
2023-05-06T23:10:31.485Z,24.67
2023-05-06T23:13:00.236Z,24.63
2023-05-06T23:15:27.607Z,24.64
2023-05-06T23:17:54.911Z,24.72
2023-05-06T23:20:22.099Z,24.70
2023-05-06T23:22:49.161Z,24.72
2023-05-06T23:25:17.229Z,24.64
2023-05-06T23:27:46.762Z,24.59
2023-05-06T23:30:13.990Z,24.67
2023-05-06T23:32:41.222Z,24.67
2023-05-06T23:35:08.902Z,24.77
2023-05-06T23:37:36.211Z,24.61
2023-05-06T23:40:03.377Z,24.63
2023-05-06T23:42:30.431Z,24.60
2023-05-06T23:44:59.050Z,24.53
2023-05-06T23:47:26.149Z,24.56
2023-05-06T23:49:53.259Z,24.62
2023-05-06T23:52:20.385Z,24.69
2023-05-06T23:54:47.449Z,24.65
2023-05-06T23:57:14.645Z,24.50
2023-05-06T23:59:41.698Z,24.56
